createdAt,value
2023-05-16T00:00:35.126Z,10.85
2023-05-16T00:02:03.405Z,9.93
2023-05-16T00:03:37.487Z,9.99
2023-05-16T00:04:59.901Z,10.44
2023-05-16T00:06:29.083Z,9.69
2023-05-16T00:07:58.017Z,9.72
2023-05-16T00:09:19.501Z,9.13
2023-05-16T00:10:46.033Z,9.22
2023-05-16T00:12:08.060Z,9.23
2023-05-16T00:13:42.444Z,9.29
2023-05-16T00:15:14.393Z,8.70
2023-05-16T00:16:38.377Z,9.07
2023-05-16T00:18:15.623Z,9.16
2023-05-16T00:19:37.486Z,9.32
2023-05-16T00:21:11.360Z,9.83
2023-05-16T00:22:44.634Z,9.79
2023-05-16T00:24:17.950Z,10.09
2023-05-16T00:25:47.288Z,10.45
2023-05-16T00:27:09.288Z,10.15
2023-05-16T00:28:30.680Z,9.88
2023-05-16T00:29:52.639Z,10.13
2023-05-16T00:31:14.719Z,9.87
2023-05-16T00:32:38.514Z,10.18
2023-05-16T00:34:01.546Z,10.13
2023-05-16T00:35:25.578Z,10.22
2023-05-16T00:36:54.296Z,10.04
2023-05-16T00:38:16.692Z,10.35
2023-05-16T00:39:40.417Z,10.27
2023-05-16T00:41:02.225Z,10.49
2023-05-16T00:42:46.841Z,11.15
2023-05-16T00:44:21.576Z,10.80
2023-05-16T00:45:53.053Z,11.25
2023-05-16T00:47:26.744Z,11.57
2023-05-16T00:49:00.697Z,11.43
2023-05-16T00:50:24.644Z,12.73
2023-05-16T00:51:46.849Z,11.68
2023-05-16T00:53:11.085Z,11.37
2023-05-16T00:54:33.278Z,11.13
2023-05-16T00:55:54.866Z,10.85
2023-05-16T00:57:17.013Z,10.74
2023-05-16T00:58:38.852Z,10.59
2023-05-16T01:00:00.747Z,11.25
2023-05-16T01:01:22.535Z,11.03
2023-05-16T01:02:51.679Z,11.06
2023-05-16T01:04:15.898Z,11.31
2023-05-16T01:05:37.441Z,12.04
2023-05-16T01:06:59.186Z,11.90
2023-05-16T01:08:21.726Z,11.35
2023-05-16T01:09:51.096Z,11.45
2023-05-16T01:11:13.295Z,10.78
2023-05-16T01:12:34.882Z,11.30
2023-05-16T01:13:56.904Z,11.63
2023-05-16T01:15:18.588Z,11.40
2023-05-16T01:16:40.271Z,11.73
2023-05-16T01:18:02.409Z,11.47
2023-05-16T01:19:26.530Z,11.20
2023-05-16T01:20:55.898Z,11.48
2023-05-16T01:22:21.638Z,10.94
2023-05-16T01:23:43.551Z,11.46
2023-05-16T01:25:26.351Z,11.13
2023-05-16T01:26:48.034Z,11.42
2023-05-16T01:28:23.648Z,10.60
2023-05-16T01:29:48.030Z,10.48
2023-05-16T01:31:33.221Z,10.92
2023-05-16T01:32:59.603Z,10.63
2023-05-16T01:34:35.322Z,10.11
2023-05-16T01:35:57.353Z,10.08
2023-05-16T01:37:30.653Z,10.11
2023-05-16T01:39:01.848Z,10.34
2023-05-16T01:40:40.656Z,10.36
2023-05-16T01:42:23.252Z,10.45
2023-05-16T01:43:59.100Z,11.23
2023-05-16T01:45:44.396Z,10.73
2023-05-16T01:47:18.308Z,10.48
2023-05-16T01:48:52.351Z,10.85
2023-05-16T01:50:16.418Z,11.35
2023-05-16T01:51:51.610Z,10.83
2023-05-16T01:53:13.390Z,11.39
2023-05-16T01:54:51.663Z,12.10
2023-05-16T01:56:13.973Z,11.44
2023-05-16T01:57:49.353Z,11.51
2023-05-16T01:59:13.796Z,11.71
2023-05-16T02:00:37.701Z,11.45
2023-05-16T02:02:22.947Z,11.38
2023-05-16T02:03:49.313Z,11.59
2023-05-16T02:05:34.263Z,11.42
2023-05-16T02:07:16.788Z,11.55
2023-05-16T02:08:39.931Z,12.01
2023-05-16T02:10:19.729Z,11.76
2023-05-16T02:11:51.453Z,11.79
2023-05-16T02:13:36.770Z,12.08
2023-05-16T02:15:10.408Z,11.41
2023-05-16T02:16:45.584Z,11.53
2023-05-16T02:18:26.175Z,12.16
2023-05-16T02:20:15.599Z,11.94
2023-05-16T02:22:00.286Z,13.00
2023-05-16T02:23:31.422Z,12.81
2023-05-16T02:24:54.836Z,12.08
2023-05-16T02:26:16.344Z,12.29
2023-05-16T02:27:52.450Z,11.57
2023-05-16T02:29:33.440Z,12.21
2023-05-16T02:31:18.394Z,11.84
2023-05-16T02:32:52.063Z,12.41
2023-05-16T02:34:34.180Z,12.91
2023-05-16T02:36:06.158Z,12.01
2023-05-16T02:37:41.429Z,12.01
2023-05-16T02:39:04.204Z,12.73
2023-05-16T02:40:30.720Z,12.48
2023-05-16T02:42:08.471Z,11.68
2023-05-16T02:43:53.741Z,12.83
2023-05-16T02:45:22.618Z,11.84
2023-05-16T02:46:46.508Z,12.77
2023-05-16T02:48:22.458Z,12.54
2023-05-16T02:50:01.912Z,12.71
2023-05-16T02:51:23.712Z,12.59
2023-05-16T02:52:49.870Z,12.37
2023-05-16T02:54:25.737Z,12.12
2023-05-16T02:55:51.913Z,12.09
2023-05-16T02:57:25.435Z,11.93
2023-05-16T02:58:49.207Z,12.61
2023-05-16T03:00:18.914Z,13.05
2023-05-16T03:01:54.873Z,12.71
2023-05-16T03:03:36.186Z,12.66
2023-05-16T03:05:17.977Z,12.94
2023-05-16T03:06:47.519Z,12.42
2023-05-16T03:08:23.047Z,12.04
2023-05-16T03:09:47.346Z,12.44
2023-05-16T03:11:40.648Z,12.22
2023-05-16T03:13:14.444Z,12.63
2023-05-16T03:14:39.120Z,12.51
2023-05-16T03:16:03.113Z,13.07
2023-05-16T03:17:38.801Z,12.52
2023-05-16T03:19:24.056Z,12.62
2023-05-16T03:20:59.851Z,12.34
2023-05-16T03:22:45.269Z,12.71
2023-05-16T03:24:30.450Z,12.37
2023-05-16T03:26:17.467Z,12.78
2023-05-16T03:27:51.372Z,12.50
2023-05-16T03:29:26.506Z,12.82
2023-05-16T03:30:50.836Z,12.25
2023-05-16T03:32:36.112Z,12.37
2023-05-16T03:34:09.904Z,11.75
2023-05-16T03:35:43.551Z,12.93
2023-05-16T03:37:18.930Z,12.46
2023-05-16T03:38:43.167Z,11.76
2023-05-16T03:40:18.238Z,12.34
2023-05-16T03:42:03.653Z,12.54
2023-05-16T03:43:40.379Z,12.67
2023-05-16T03:45:07.666Z,12.59
2023-05-16T03:46:52.794Z,12.84
2023-05-16T03:48:26.547Z,12.43
2023-05-16T03:50:00.004Z,12.93
2023-05-16T03:51:45.835Z,12.47
2023-05-16T03:53:22.098Z,12.59
2023-05-16T03:54:51.835Z,13.30
2023-05-16T03:56:27.553Z,12.93
2023-05-16T03:57:57.052Z,13.11
2023-05-16T03:59:32.711Z,13.26
2023-05-16T04:01:04.129Z,13.09
2023-05-16T04:02:37.733Z,12.99
2023-05-16T04:04:02.131Z,12.51
2023-05-16T04:05:34.165Z,12.98
2023-05-16T04:07:27.968Z,13.56
2023-05-16T04:09:00.024Z,13.28
2023-05-16T04:10:33.436Z,12.71
2023-05-16T04:12:06.181Z,13.65
2023-05-16T04:13:39.677Z,13.01
2023-05-16T04:15:25.206Z,13.04
2023-05-16T04:17:11.045Z,14.17
2023-05-16T04:18:52.078Z,14.12
2023-05-16T04:20:45.369Z,14.08
2023-05-16T04:22:26.054Z,14.40
2023-05-16T04:24:02.426Z,13.68
2023-05-16T04:25:42.959Z,13.83
2023-05-16T04:27:09.424Z,13.43
2023-05-16T04:28:35.724Z,14.00
2023-05-16T04:30:08.828Z,14.63
2023-05-16T04:31:40.482Z,14.49
2023-05-16T04:33:25.673Z,14.03
2023-05-16T04:34:59.999Z,14.74
2023-05-16T04:36:29.881Z,13.66
2023-05-16T04:38:05.803Z,13.74
2023-05-16T04:39:39.187Z,12.96
2023-05-16T04:41:03.850Z,13.21
2023-05-16T04:42:30.174Z,13.35
2023-05-16T04:44:06.381Z,13.23
2023-05-16T04:45:30.761Z,13.53
2023-05-16T04:46:53.413Z,13.91
2023-05-16T04:48:20.082Z,13.36
2023-05-16T04:49:53.817Z,13.46
2023-05-16T04:51:27.293Z,13.48
2023-05-16T04:53:00.828Z,14.46
2023-05-16T04:54:34.585Z,12.79
2023-05-16T04:56:11.878Z,13.06
2023-05-16T04:57:47.616Z,13.24
2023-05-16T04:59:22.758Z,13.58
2023-05-16T05:01:04.114Z,13.47
2023-05-16T05:02:37.836Z,13.78
2023-05-16T05:04:01.808Z,13.31
2023-05-16T05:05:23.731Z,13.27
2023-05-16T05:06:55.259Z,13.02
2023-05-16T05:08:19.597Z,12.36
2023-05-16T05:09:54.463Z,13.02
2023-05-16T05:11:30.492Z,13.90
2023-05-16T05:13:04.024Z,12.81
2023-05-16T05:14:37.654Z,13.22
2023-05-16T05:15:59.419Z,13.00
2023-05-16T05:17:23.719Z,14.06
2023-05-16T05:19:08.809Z,12.90
2023-05-16T05:20:42.109Z,12.86
2023-05-16T05:22:08.633Z,12.68
2023-05-16T05:23:33.126Z,13.32
2023-05-16T05:25:18.491Z,13.53
2023-05-16T05:26:44.499Z,13.35
2023-05-16T05:28:13.859Z,13.45
2023-05-16T05:29:49.895Z,13.28
2023-05-16T05:31:11.973Z,12.74
2023-05-16T05:32:53.356Z,13.00
2023-05-16T05:34:25.203Z,13.23
2023-05-16T05:35:56.357Z,12.49
2023-05-16T05:37:41.685Z,13.07
2023-05-16T05:39:26.338Z,13.70
2023-05-16T05:40:49.578Z,13.34
2023-05-16T05:42:12.138Z,13.77
2023-05-16T05:43:46.184Z,14.07
2023-05-16T05:45:22.068Z,13.70
2023-05-16T05:46:57.737Z,13.28
2023-05-16T05:48:41.251Z,13.43
2023-05-16T05:50:14.627Z,13.70
2023-05-16T05:51:55.468Z,13.38
2023-05-16T05:53:40.961Z,14.01
2023-05-16T05:55:02.918Z,13.76
2023-05-16T05:56:38.676Z,13.88
2023-05-16T05:58:04.382Z,13.43
2023-05-16T05:59:39.388Z,13.65
2023-05-16T06:01:24.591Z,13.28
2023-05-16T06:03:13.080Z,13.61
2023-05-16T06:04:42.699Z,13.37
2023-05-16T06:06:20.431Z,13.47
2023-05-16T06:07:42.423Z,13.24
2023-05-16T06:09:27.789Z,14.89
2023-05-16T06:10:54.189Z,15.20
2023-05-16T06:12:27.989Z,14.98
2023-05-16T06:13:52.265Z,15.34
2023-05-16T06:15:38.647Z,15.42
2023-05-16T06:17:03.596Z,15.06
2023-05-16T06:18:32.635Z,14.43
2023-05-16T06:20:06.546Z,15.37
2023-05-16T06:21:31.104Z,15.20
2023-05-16T06:23:04.578Z,17.76
2023-05-16T06:24:38.166Z,18.50
2023-05-16T06:26:23.412Z,18.16
2023-05-16T06:27:57.394Z,18.31
2023-05-16T06:29:31.155Z,17.97
2023-05-16T06:31:00.680Z,18.27
2023-05-16T06:32:45.586Z,15.88
2023-05-16T06:34:30.982Z,14.97
2023-05-16T06:36:12.163Z,15.37
2023-05-16T06:37:34.275Z,15.80
2023-05-16T06:38:56.370Z,16.13
2023-05-16T06:40:31.948Z,16.92
2023-05-16T06:42:08.280Z,16.90
2023-05-16T06:43:53.455Z,15.35
2023-05-16T06:45:38.975Z,14.48
2023-05-16T06:47:00.570Z,13.34
2023-05-16T06:48:30.415Z,12.12
2023-05-16T06:50:03.818Z,12.48
2023-05-16T06:51:28.891Z,12.14
2023-05-16T06:53:14.189Z,11.50
2023-05-16T06:54:36.246Z,11.41
2023-05-16T06:56:10.026Z,10.78
2023-05-16T06:57:32.003Z,11.21
2023-05-16T06:59:06.032Z,11.09
2023-05-16T07:00:34.987Z,11.30
2023-05-16T07:01:56.888Z,11.69
2023-05-16T07:03:26.236Z,11.14
2023-05-16T07:04:50.585Z,11.55
2023-05-16T07:06:26.294Z,11.46
2023-05-16T07:08:08.038Z,11.62
2023-05-16T07:09:39.720Z,12.00
2023-05-16T07:11:13.343Z,11.64
2023-05-16T07:12:51.479Z,12.62
2023-05-16T07:14:15.267Z,11.59
2023-05-16T07:15:37.218Z,12.47
2023-05-16T07:17:01.422Z,12.69
2023-05-16T07:18:35.399Z,11.89
2023-05-16T07:20:17.807Z,10.79
2023-05-16T07:21:47.574Z,9.53
2023-05-16T07:23:09.362Z,10.03
2023-05-16T07:24:38.787Z,10.29
2023-05-16T07:26:03.124Z,10.40
2023-05-16T07:27:36.658Z,9.86
2023-05-16T07:29:24.494Z,9.07
2023-05-16T07:31:00.383Z,8.69
2023-05-16T07:32:31.681Z,8.18
2023-05-16T07:34:05.650Z,8.16
2023-05-16T07:35:39.227Z,7.99
2023-05-16T07:37:13.080Z,8.66
2023-05-16T07:38:39.416Z,9.27
2023-05-16T07:40:15.440Z,8.16
2023-05-16T07:41:46.966Z,7.60
2023-05-16T07:43:34.179Z,7.93
2023-05-16T07:44:57.131Z,8.66
2023-05-16T07:46:21.351Z,8.45
2023-05-16T07:47:50.516Z,8.52
2023-05-16T07:49:12.141Z,7.81
2023-05-16T07:50:46.004Z,7.07
2023-05-16T07:52:10.488Z,6.82
2023-05-16T07:53:32.692Z,6.49
2023-05-16T07:54:58.996Z,6.08
2023-05-16T07:56:23.734Z,5.68
2023-05-16T07:57:56.962Z,5.58
2023-05-16T07:59:42.406Z,5.65
2023-05-16T08:01:16.976Z,6.22
2023-05-16T08:02:50.639Z,6.08
2023-05-16T08:04:24.038Z,5.91
2023-05-16T08:05:53.499Z,6.64
2023-05-16T08:07:20.541Z,6.64
2023-05-16T08:08:42.106Z,6.88
2023-05-16T08:10:13.882Z,6.46
2023-05-16T08:11:36.357Z,5.99
2023-05-16T08:13:09.747Z,5.42
2023-05-16T08:14:32.556Z,5.17
2023-05-16T08:16:08.460Z,5.46
2023-05-16T08:17:41.687Z,5.46
2023-05-16T08:19:31.029Z,4.64
2023-05-16T08:21:17.006Z,5.64
2023-05-16T08:22:52.880Z,6.34
2023-05-16T08:24:29.085Z,5.93
2023-05-16T08:26:00.383Z,5.79
2023-05-16T08:27:45.779Z,5.97
2023-05-16T08:29:19.540Z,5.34
2023-05-16T08:31:00.277Z,5.10
2023-05-16T08:32:34.099Z,4.92
2023-05-16T08:34:13.130Z,5.33
2023-05-16T08:35:35.689Z,5.18
2023-05-16T08:37:06.991Z,4.92
2023-05-16T08:38:36.254Z,5.29
2023-05-16T08:40:03.922Z,4.74
2023-05-16T08:41:40.625Z,5.12
2023-05-16T08:43:05.206Z,5.51
2023-05-16T08:44:29.677Z,4.62
2023-05-16T08:46:05.052Z,4.97
2023-05-16T08:47:50.172Z,4.85
2023-05-16T08:49:12.353Z,5.18
2023-05-16T08:50:45.940Z,4.61
2023-05-16T08:52:31.194Z,4.89
2023-05-16T08:53:52.825Z,5.32
2023-05-16T08:55:29.532Z,5.34
2023-05-16T08:57:14.335Z,5.32
2023-05-16T08:58:59.725Z,5.70
2023-05-16T09:00:23.804Z,5.17
2023-05-16T09:02:00.692Z,4.74
2023-05-16T09:03:29.976Z,5.20
2023-05-16T09:05:03.711Z,4.21
2023-05-16T09:06:40.376Z,4.43
2023-05-16T09:10:07.249Z,4.38
2023-05-16T09:11:47.613Z,4.43
2023-05-16T09:13:20.971Z,4.35
2023-05-16T09:14:45.253Z,4.31
2023-05-16T09:16:07.244Z,4.20
2023-05-16T09:17:44.317Z,4.28
2023-05-16T09:19:34.425Z,4.05
2023-05-16T09:21:01.540Z,4.01
2023-05-16T09:22:23.183Z,4.25
2023-05-16T09:24:08.596Z,4.28
2023-05-16T09:25:43.376Z,3.80
2023-05-16T09:27:09.337Z,3.53
2023-05-16T09:28:31.886Z,3.72
2023-05-16T09:29:58.431Z,3.39
2023-05-16T09:31:33.034Z,3.07
2023-05-16T09:32:57.455Z,2.99
2023-05-16T09:34:21.247Z,2.69
2023-05-16T09:35:45.419Z,2.75
2023-05-16T09:37:07.305Z,2.78
2023-05-16T09:38:41.065Z,3.35
2023-05-16T09:40:03.224Z,2.61
2023-05-16T09:41:25.417Z,2.91
2023-05-16T09:42:54.447Z,3.01
2023-05-16T09:44:16.693Z,2.73
2023-05-16T09:46:01.828Z,2.81
2023-05-16T09:47:35.616Z,2.85
2023-05-16T09:48:57.281Z,2.86
2023-05-16T09:50:30.833Z,2.77
2023-05-16T09:52:04.376Z,3.46
2023-05-16T09:53:27.601Z,3.67
2023-05-16T09:54:57.101Z,3.87
2023-05-16T09:56:19.201Z,4.14
2023-05-16T09:57:41.054Z,3.74
2023-05-16T09:59:03.345Z,3.94
2023-05-16T10:00:27.720Z,3.77
2023-05-16T10:01:49.843Z,3.57
2023-05-16T10:03:12.086Z,3.53
2023-05-16T10:04:41.595Z,3.64
2023-05-16T10:06:07.688Z,3.31
2023-05-16T10:07:29.540Z,3.72
2023-05-16T10:08:53.837Z,3.02
2023-05-16T10:10:22.936Z,3.43
2023-05-16T10:12:07.869Z,3.14
2023-05-16T10:13:41.483Z,3.57
2023-05-16T10:15:05.926Z,3.28
2023-05-16T10:16:29.994Z,3.39
2023-05-16T10:17:53.880Z,3.54
2023-05-16T10:19:17.749Z,3.58
2023-05-16T10:20:40.041Z,3.44
2023-05-16T10:22:04.261Z,3.34
2023-05-16T10:23:26.305Z,3.28
2023-05-16T10:24:50.652Z,3.54
2023-05-16T10:26:14.545Z,3.77
2023-05-16T10:27:47.376Z,3.60
2023-05-16T10:29:16.461Z,3.66
2023-05-16T10:30:40.487Z,3.70
2023-05-16T10:32:02.798Z,3.55
2023-05-16T10:33:27.957Z,3.88
2023-05-16T10:35:01.226Z,3.39
2023-05-16T10:36:23.270Z,3.72
2023-05-16T10:37:45.070Z,3.60
2023-05-16T10:39:18.436Z,3.96
2023-05-16T10:40:47.996Z,3.50
2023-05-16T10:42:18.390Z,4.04
2023-05-16T10:43:50.028Z,3.87
2023-05-16T10:45:11.720Z,3.78
2023-05-16T10:46:47.357Z,3.93
2023-05-16T10:48:11.547Z,4.14
2023-05-16T10:49:35.854Z,3.91
2023-05-16T10:50:57.535Z,3.99
2023-05-16T10:52:22.066Z,4.06
2023-05-16T10:53:46.155Z,3.89
2023-05-16T10:55:07.840Z,3.98
2023-05-16T10:56:29.899Z,3.83
2023-05-16T10:57:51.552Z,3.81
2023-05-16T10:59:13.999Z,3.95
2023-05-16T11:00:35.734Z,4.15
2023-05-16T11:01:57.800Z,4.35
2023-05-16T11:03:31.728Z,3.99
2023-05-16T11:04:55.741Z,3.92
2023-05-16T11:06:18.310Z,3.47
2023-05-16T11:07:42.455Z,4.19
2023-05-16T11:09:10.422Z,3.68
2023-05-16T11:10:44.500Z,4.34
2023-05-16T11:12:06.441Z,4.40
2023-05-16T11:13:57.117Z,4.45
2023-05-16T11:15:19.475Z,4.09
2023-05-16T11:16:44.237Z,4.58
2023-05-16T11:18:06.652Z,4.74
2023-05-16T11:19:28.067Z,4.64
2023-05-16T11:20:59.572Z,4.71
2023-05-16T11:22:24.235Z,4.74
2023-05-16T11:23:48.932Z,4.42
2023-05-16T11:25:10.920Z,4.15
2023-05-16T11:26:35.136Z,4.33
2023-05-16T11:27:56.650Z,4.38
2023-05-16T11:29:18.479Z,3.92
2023-05-16T11:30:40.612Z,4.28
2023-05-16T11:32:06.552Z,4.64
2023-05-16T11:33:36.583Z,4.75
2023-05-16T11:35:00.239Z,3.89
2023-05-16T11:36:25.551Z,4.02
2023-05-16T11:37:47.306Z,4.21
2023-05-16T11:39:12.577Z,4.33
2023-05-16T11:40:34.949Z,4.61
2023-05-16T11:41:58.741Z,4.73
2023-05-16T11:43:27.942Z,4.49
2023-05-16T11:44:57.980Z,4.58
2023-05-16T11:46:19.833Z,4.13
2023-05-16T11:47:41.734Z,4.23
2023-05-16T11:49:03.207Z,4.29
2023-05-16T11:50:25.020Z,4.58
2023-05-16T11:51:58.269Z,4.45
2023-05-16T11:53:22.595Z,4.36
2023-05-16T11:54:44.582Z,4.55
2023-05-16T11:56:08.953Z,4.36
2023-05-16T11:57:32.840Z,4.56
2023-05-16T11:58:54.313Z,4.54
2023-05-16T12:00:16.628Z,4.32
2023-05-16T12:01:43.394Z,4.35
2023-05-16T12:03:05.923Z,4.03
2023-05-16T12:04:28.519Z,4.23
2023-05-16T12:06:09.692Z,4.27
2023-05-16T12:07:40.936Z,4.18
2023-05-16T12:09:09.932Z,4.50
2023-05-16T12:10:34.805Z,4.30
2023-05-16T12:11:59.156Z,4.51
2023-05-16T12:13:30.248Z,4.44
2023-05-16T12:14:54.466Z,4.60
2023-05-16T12:16:16.568Z,4.52
2023-05-16T12:17:52.205Z,4.65
2023-05-16T12:19:26.093Z,4.74
2023-05-16T12:20:49.947Z,4.33
2023-05-16T12:22:14.560Z,4.76
2023-05-16T12:23:48.328Z,4.35
2023-05-16T12:25:21.583Z,4.54
2023-05-16T12:26:45.758Z,5.00
2023-05-16T12:28:21.647Z,4.50
2023-05-16T12:29:57.209Z,4.15
2023-05-16T12:31:31.025Z,4.52
2023-05-16T12:32:56.543Z,4.47
2023-05-16T12:34:33.303Z,4.49
2023-05-16T12:35:55.282Z,3.98
2023-05-16T12:37:16.928Z,4.32
2023-05-16T12:38:53.046Z,4.37
2023-05-16T12:40:17.135Z,4.21
2023-05-16T12:41:50.940Z,4.41
2023-05-16T12:43:13.007Z,4.36
2023-05-16T12:44:35.711Z,4.28
2023-05-16T12:46:00.122Z,4.05
2023-05-16T12:47:29.473Z,4.07
2023-05-16T12:48:58.853Z,4.64
2023-05-16T12:50:20.255Z,4.36
2023-05-16T12:51:44.045Z,4.29
2023-05-16T12:53:05.468Z,4.35
2023-05-16T12:54:27.219Z,4.38
2023-05-16T12:55:49.379Z,4.22
2023-05-16T12:57:10.966Z,4.06
2023-05-16T12:58:35.358Z,4.20
2023-05-16T12:59:57.136Z,4.44
2023-05-16T13:01:21.622Z,4.18
2023-05-16T13:02:46.010Z,4.51
2023-05-16T13:04:15.208Z,4.52
2023-05-16T13:05:39.732Z,4.51
2023-05-16T13:07:11.129Z,4.33
2023-05-16T13:08:32.933Z,4.59
2023-05-16T13:09:54.738Z,4.80
2023-05-16T13:11:16.336Z,4.54
2023-05-16T13:12:52.228Z,4.55
2023-05-16T13:14:16.611Z,4.15
2023-05-16T13:15:38.517Z,4.36
2023-05-16T13:17:04.862Z,4.35
2023-05-16T13:18:29.137Z,4.18
2023-05-16T13:19:53.448Z,4.47
2023-05-16T13:21:24.985Z,4.54
2023-05-16T13:22:48.885Z,4.55
2023-05-16T13:24:22.262Z,6.23
2023-05-16T13:25:49.078Z,5.81
2023-05-16T13:27:11.325Z,5.09
2023-05-16T13:28:36.344Z,4.24
2023-05-16T13:30:00.368Z,4.37
2023-05-16T13:31:34.129Z,4.28
2023-05-16T13:33:03.649Z,4.94
2023-05-16T13:34:27.550Z,4.31
2023-05-16T13:35:49.138Z,4.54
2023-05-16T13:37:18.436Z,4.52
2023-05-16T13:38:43.185Z,4.48
2023-05-16T13:40:05.203Z,4.86
2023-05-16T13:41:30.180Z,4.81
2023-05-16T13:42:52.206Z,4.60
2023-05-16T13:44:17.072Z,4.53
2023-05-16T13:45:50.907Z,5.20
2023-05-16T13:47:12.557Z,4.47
2023-05-16T13:48:45.975Z,4.97
2023-05-16T13:50:10.433Z,4.93
2023-05-16T13:51:35.092Z,4.86
2023-05-16T13:53:04.384Z,4.53
2023-05-16T13:54:33.633Z,4.58
2023-05-16T13:55:57.976Z,4.92
2023-05-16T13:57:27.817Z,4.83
2023-05-16T13:59:01.102Z,5.19
2023-05-16T14:00:43.329Z,4.61
2023-05-16T14:02:06.823Z,4.98
2023-05-16T14:03:33.722Z,4.78
2023-05-16T14:05:07.364Z,4.39
2023-05-16T14:06:29.379Z,4.68
2023-05-16T14:07:53.996Z,4.84
2023-05-16T14:09:16.869Z,5.49
2023-05-16T14:10:38.863Z,4.77
2023-05-16T14:12:13.307Z,4.98
2023-05-16T14:13:35.482Z,4.76
2023-05-16T14:15:02.626Z,4.80
2023-05-16T14:16:39.933Z,4.53
2023-05-16T14:18:13.429Z,4.58
2023-05-16T14:19:36.431Z,4.74
2023-05-16T14:20:58.813Z,4.79
2023-05-16T14:22:20.035Z,4.59
2023-05-16T14:23:44.399Z,5.13
2023-05-16T14:25:08.636Z,4.85
2023-05-16T14:26:32.425Z,5.05
2023-05-16T14:27:53.981Z,4.90
2023-05-16T14:29:15.985Z,4.85
2023-05-16T14:30:37.825Z,4.49
2023-05-16T14:32:08.976Z,4.82
2023-05-16T14:33:33.305Z,4.72
2023-05-16T14:34:57.316Z,5.34
2023-05-16T14:36:18.980Z,4.90
2023-05-16T14:37:48.620Z,5.07
2023-05-16T14:39:21.675Z,4.77
2023-05-16T14:40:43.474Z,5.17
2023-05-16T14:42:08.250Z,4.87
2023-05-16T14:43:32.940Z,4.92
2023-05-16T14:44:54.633Z,4.86
2023-05-16T14:46:18.443Z,5.03
2023-05-16T14:47:55.090Z,4.47
2023-05-16T14:49:16.972Z,4.56
2023-05-16T14:50:38.626Z,4.58
2023-05-16T14:52:00.540Z,4.99
2023-05-16T14:53:34.378Z,4.69
2023-05-16T14:54:56.213Z,5.14
2023-05-16T14:56:20.336Z,4.63
2023-05-16T14:57:45.267Z,5.03
2023-05-16T14:59:09.722Z,4.45
2023-05-16T15:00:43.171Z,4.72
2023-05-16T15:02:04.722Z,4.67
2023-05-16T15:03:33.623Z,4.75
2023-05-16T15:05:00.137Z,5.07
2023-05-16T15:06:31.683Z,4.73
2023-05-16T15:07:58.550Z,4.70
2023-05-16T15:09:20.690Z,4.69
2023-05-16T15:10:49.833Z,4.78
2023-05-16T15:12:33.070Z,4.66
2023-05-16T15:13:54.612Z,4.58
2023-05-16T15:15:16.634Z,4.44
2023-05-16T15:16:50.925Z,4.92
2023-05-16T15:18:24.061Z,4.81
2023-05-16T15:19:57.900Z,4.83
2023-05-16T15:21:22.033Z,4.69
2023-05-16T15:22:58.274Z,4.47
2023-05-16T15:24:31.707Z,4.67
2023-05-16T15:26:05.695Z,4.78
2023-05-16T15:27:50.955Z,5.91
2023-05-16T15:29:12.716Z,5.70
2023-05-16T15:30:46.682Z,4.99
2023-05-16T15:32:11.254Z,6.02
2023-05-16T15:33:48.704Z,7.00
2023-05-16T15:35:12.948Z,5.92
2023-05-16T15:36:42.459Z,5.28
2023-05-16T15:38:08.729Z,5.14
2023-05-16T15:39:32.773Z,5.29
2023-05-16T15:41:22.459Z,4.52
2023-05-16T15:42:50.706Z,4.92
2023-05-16T15:44:19.878Z,4.88
2023-05-16T15:45:58.858Z,4.93
2023-05-16T15:47:28.290Z,5.50
2023-05-16T15:48:52.502Z,5.50
2023-05-16T15:50:38.313Z,5.47
2023-05-16T15:52:10.217Z,5.26
2023-05-16T15:53:51.060Z,4.92
2023-05-16T15:55:19.872Z,4.48
2023-05-16T15:56:53.506Z,5.19
2023-05-16T15:58:15.076Z,4.63
2023-05-16T15:59:41.614Z,4.79
2023-05-16T16:01:12.937Z,4.76
2023-05-16T16:02:56.191Z,5.12
2023-05-16T16:04:33.245Z,5.44
2023-05-16T16:06:02.557Z,4.98
2023-05-16T16:07:43.761Z,4.70
2023-05-16T16:09:15.432Z,4.59
2023-05-16T16:10:50.300Z,4.74
2023-05-16T16:12:32.968Z,4.84
2023-05-16T16:14:08.493Z,5.44
2023-05-16T16:15:42.342Z,5.29
2023-05-16T16:17:19.795Z,4.73
2023-05-16T16:18:53.333Z,4.89
2023-05-16T16:20:26.616Z,4.73
2023-05-16T16:22:00.725Z,5.08
2023-05-16T16:23:31.756Z,5.14
2023-05-16T16:24:56.262Z,5.20
2023-05-16T16:26:29.759Z,5.15
2023-05-16T16:28:01.282Z,5.66
2023-05-16T16:29:37.722Z,5.43
2023-05-16T16:31:22.922Z,5.17
2023-05-16T16:32:56.542Z,4.70
2023-05-16T16:34:29.995Z,4.96
2023-05-16T16:35:59.275Z,5.29
2023-05-16T16:37:41.660Z,5.30
2023-05-16T16:39:05.672Z,4.46
2023-05-16T16:40:50.912Z,5.40
2023-05-16T16:42:31.334Z,5.29
2023-05-16T16:43:53.250Z,5.31
2023-05-16T16:45:29.928Z,5.24
2023-05-16T16:47:04.392Z,5.67
2023-05-16T16:48:47.031Z,5.51
2023-05-16T16:50:22.863Z,5.65
2023-05-16T16:51:56.233Z,5.28
2023-05-16T16:53:41.625Z,5.15
2023-05-16T16:55:22.357Z,4.68
2023-05-16T16:56:58.476Z,5.04
2023-05-16T16:58:27.459Z,5.21
2023-05-16T16:59:49.289Z,5.11
2023-05-16T17:01:30.061Z,4.97
2023-05-16T17:03:12.685Z,5.40
2023-05-16T17:04:48.753Z,4.44
2023-05-16T17:06:24.730Z,5.38
2023-05-16T17:07:58.729Z,4.99
2023-05-16T17:09:43.788Z,4.97
2023-05-16T17:11:07.710Z,5.06
2023-05-16T17:12:48.847Z,5.17
2023-05-16T17:14:12.597Z,5.58
2023-05-16T17:15:47.194Z,6.10
2023-05-16T17:17:28.730Z,5.80
2023-05-16T17:18:53.256Z,6.44
2023-05-16T17:20:29.039Z,6.80
2023-05-16T17:22:02.670Z,7.00
2023-05-16T17:23:26.326Z,6.93
2023-05-16T17:24:50.581Z,6.79
2023-05-16T17:26:13.489Z,6.93
2023-05-16T17:27:49.002Z,11.77
2023-05-16T17:29:26.796Z,15.08
2023-05-16T17:31:00.988Z,11.50
2023-05-16T17:32:41.786Z,13.43
2023-05-16T17:34:12.787Z,12.53
2023-05-16T17:35:53.772Z,9.83
2023-05-16T17:37:23.324Z,9.66
2023-05-16T17:38:54.454Z,9.48
2023-05-16T17:40:17.757Z,8.92
2023-05-16T17:41:47.288Z,9.60
2023-05-16T17:43:16.005Z,9.28
2023-05-16T17:44:59.069Z,9.41
2023-05-16T17:46:21.584Z,9.55
2023-05-16T17:47:43.760Z,9.06
2023-05-16T17:49:13.206Z,8.46
2023-05-16T17:50:46.774Z,8.22
2023-05-16T17:52:23.081Z,7.79
2023-05-16T17:53:45.269Z,7.92
2023-05-16T17:55:09.060Z,7.79
2023-05-16T17:56:31.255Z,8.49
2023-05-16T17:57:53.136Z,8.05
2023-05-16T17:59:17.089Z,8.51
2023-05-16T18:00:50.651Z,8.04
2023-05-16T18:02:38.154Z,8.38
2023-05-16T18:04:01.335Z,8.79
2023-05-16T18:05:23.372Z,8.43
2023-05-16T18:06:56.883Z,8.01
2023-05-16T18:08:32.305Z,8.42
2023-05-16T18:10:13.262Z,8.43
2023-05-16T18:11:47.044Z,8.41
2023-05-16T18:13:08.807Z,8.56
2023-05-16T18:14:45.787Z,8.59
2023-05-16T18:16:10.427Z,8.33
2023-05-16T18:17:34.584Z,8.93
2023-05-16T18:19:16.534Z,8.89
2023-05-16T18:20:48.400Z,8.53
2023-05-16T18:22:23.544Z,8.58
2023-05-16T18:23:59.545Z,8.89
2023-05-16T18:25:23.240Z,9.25
2023-05-16T18:26:48.285Z,8.22
2023-05-16T18:28:19.421Z,8.34
2023-05-16T18:29:59.967Z,8.47
2023-05-16T18:31:33.757Z,7.68
2023-05-16T18:32:55.750Z,8.38
2023-05-16T18:34:29.057Z,7.65
2023-05-16T18:36:14.552Z,8.26
2023-05-16T18:37:39.068Z,7.87
2023-05-16T18:39:22.197Z,8.19
2023-05-16T18:40:48.095Z,7.06
2023-05-16T18:42:21.271Z,7.86
2023-05-16T18:43:43.477Z,7.92
2023-05-16T18:45:07.586Z,8.27
2023-05-16T18:46:29.725Z,8.24
2023-05-16T18:47:54.428Z,8.12
2023-05-16T18:49:39.616Z,8.52
2023-05-16T18:51:12.640Z,9.15
2023-05-16T18:52:58.046Z,9.97
2023-05-16T18:54:34.111Z,9.06
2023-05-16T18:55:58.770Z,9.35
2023-05-16T18:57:39.616Z,9.69
2023-05-16T18:59:13.187Z,9.30
2023-05-16T19:00:37.386Z,8.97
2023-05-16T19:02:01.787Z,8.81
2023-05-16T19:03:35.840Z,8.14
2023-05-16T19:05:09.655Z,8.95
2023-05-16T19:06:34.491Z,7.96
2023-05-16T19:07:58.496Z,8.67
2023-05-16T19:09:30.533Z,8.45
2023-05-16T19:11:06.877Z,8.10
2023-05-16T19:12:37.829Z,8.68
2023-05-16T19:14:11.528Z,8.29
2023-05-16T19:15:35.669Z,8.53
2023-05-16T19:17:01.765Z,7.97
2023-05-16T19:18:37.170Z,7.59
2023-05-16T19:20:30.638Z,7.92
2023-05-16T19:21:55.632Z,8.00
2023-05-16T19:23:19.664Z,8.77
2023-05-16T19:24:53.179Z,8.59
2023-05-16T19:26:28.472Z,8.50
2023-05-16T19:28:09.166Z,8.49
2023-05-16T19:29:54.756Z,8.23
2023-05-16T19:31:19.099Z,8.94
2023-05-16T19:32:52.907Z,8.29
2023-05-16T19:34:28.876Z,8.24
2023-05-16T19:35:53.948Z,8.02
2023-05-16T19:37:29.337Z,8.59
2023-05-16T19:39:00.962Z,8.55
2023-05-16T19:40:34.458Z,8.41
2023-05-16T19:42:17.755Z,8.90
2023-05-16T19:43:39.834Z,8.81
2023-05-16T19:45:01.752Z,8.12
2023-05-16T19:46:23.476Z,8.19
2023-05-16T19:47:52.870Z,9.16
2023-05-16T19:49:26.800Z,10.61
2023-05-16T19:50:57.943Z,13.77
2023-05-16T19:52:24.306Z,15.25